Time;durP1;ratioP1;P1;durP2;ratioP2;P2;SDS_P1;SDS_P2;PMS_P1;PMS_P2;Temp;Humidity;BMP_temperature;BMP_pressure;BME280_temperature;BME280_humidity;BME280_pressure;Samples;Min_cycle;Max_cycle;Signal;HPM_P1;HPM_P2
2022/03/07 00:01:27;;;;;;;;;;;;;;;-0.31;74.66;101526.69;5058758;28;1968;-84
2022/03/07 00:03:53;;;;;;;;;;;;;;;-0.44;74.15;101520.09;5058027;28;1462;-84
2022/03/07 00:06:18;;;;;;;;;;;;;;;-0.42;74.39;101523.41;5076198;28;1423;-83
2022/03/07 00:08:43;;;;;;;;;;;;;;;-0.38;74.25;101526.59;5076303;28;1298;-84
2022/03/07 00:11:08;;;;;;;;;;;;;;;-0.29;74.35;101519.25;5058328;28;1185;-84
2022/03/07 00:13:34;;;;;;;;;;;;;;;-0.30;74.29;101515.75;5074687;28;1523;-83
2022/03/07 00:15:59;;;;;;;;;;;;;;;-0.44;74.60;101520.09;5058460;28;1571;-84
2022/03/07 00:18:24;;;;;;;;;;;;;;;-0.42;74.65;101520.72;5057822;28;1327;-82
2022/03/07 00:20:50;;;;;;;;;;;;;;;-0.36;74.55;101518.34;5058057;28;1760;-84
2022/03/07 00:23:15;;;;;;;;;;;;;;;-0.43;74.82;101508.31;5057691;28;1882;-84
2022/03/07 00:25:40;;;;;;;;;;;;;;;-0.36;75.00;101521.88;5075401;28;1678;-84
2022/03/07 00:28:05;;;;;;;;;;;;;;;-0.32;75.03;101522.31;5076848;28;1728;-84
2022/03/07 00:30:30;;;;;;;;;;;;;;;-0.31;75.70;101521.28;5058493;28;1599;-84
2022/03/07 00:32:56;;;;;;;;;;;;;;;-0.38;75.46;101532.81;5079001;28;1740;-81
2022/03/07 00:35:21;;;;;;;;;;;;;;;-0.52;75.54;101522.88;5061030;28;960;-84
2022/03/07 00:37:46;;;;;;;;;;;;;;;-0.62;76.08;101533.03;5079847;28;781;-82
2022/03/07 00:40:11;;;;;;;;;;;;;;;-0.57;76.12;101524.41;5051082;28;1419;-83
2022/03/07 00:42:40;;;;;;;;;;;;;;;-0.57;76.27;101516.34;5061443;28;1959;-82
2022/03/07 00:45:08;;;;;;;;;;;;;;;-0.52;75.98;101520.19;5060821;28;1645;-84
2022/03/07 00:47:34;;;;;;;;;;;;;;;-0.40;75.89;101528.63;5078343;28;1610;-84
2022/03/07 00:49:59;;;;;;;;;;;;;;;-0.43;75.82;101535.22;5060280;28;1345;-83
2022/03/07 00:52:24;;;;;;;;;;;;;;;-0.50;75.90;101531.56;5078351;28;1776;-85
2022/03/07 00:54:50;;;;;;;;;;;;;;;-0.60;76.29;101535.56;5052644;28;1517;-83
2022/03/07 00:57:15;;;;;;;;;;;;;;;-0.57;76.48;101532.47;5040646;28;904;-84
2022/03/07 00:59:40;;;;;;;;;;;;;;;-0.49;76.58;101532.41;5064636;28;1622;-83
2022/03/07 01:02:05;;;;;;;;;;;;;;;-0.43;76.85;101537.91;5077117;28;1901;-84
2022/03/07 01:04:30;;;;;;;;;;;;;;;-0.36;76.53;101546.06;5055679;28;1459;-84
2022/03/07 01:06:55;;;;;;;;;;;;;;;-0.34;76.39;101546.69;5060227;28;1052;-84
2022/03/07 01:09:20;;;;;;;;;;;;;;;-0.34;76.36;101538.63;5060698;28;1306;-83
2022/03/07 01:11:46;;;;;;;;;;;;;;;-0.35;76.35;101541.53;5080121;28;1646;-82
2022/03/07 01:14:11;;;;;;;;;;;;;;;-0.42;76.53;101536.88;5079757;28;1548;-82
2022/03/07 01:16:37;;;;;;;;;;;;;;;-0.43;76.61;101540.59;5080268;28;1416;-83
2022/03/07 01:19:02;;;;;;;;;;;;;;;-0.42;76.81;101557.53;5079823;28;1305;-83
2022/03/07 01:21:27;;;;;;;;;;;;;;;-0.48;76.21;101550.22;5080864;28;1890;-82
2022/03/07 01:23:52;;;;;;;;;;;;;;;-0.45;76.54;101556.06;5062230;28;1701;-82
2022/03/07 01:26:17;;;;;;;;;;;;;;;-0.51;76.31;101542.53;5063146;28;1208;-82
2022/03/07 01:28:42;;;;;;;;;;;;;;;-0.43;76.42;101545.13;5061387;28;1837;-82
2022/03/07 01:31:08;;;;;;;;;;;;;;;-0.46;76.63;101542.81;5079542;28;939;-82
2022/03/07 01:33:33;;;;;;;;;;;;;;;-0.42;76.49;101546.78;5061048;28;1358;-82
2022/03/07 01:35:58;;;;;;;;;;;;;;;-0.41;76.65;101551.16;5060930;28;1298;-83
2022/03/07 01:38:23;;;;;;;;;;;;;;;-0.40;76.53;101536.69;5078578;28;1184;-83
2022/03/07 01:40:50;;;;;;;;;;;;;;;-0.40;76.41;101539.38;5060063;28;1422;-81
2022/03/07 01:43:16;;;;;;;;;;;;;;;-0.53;76.27;101531.13;5058663;28;1879;-83
2022/03/07 01:45:41;;;;;;;;;;;;;;;-0.46;76.56;101532.88;5077940;28;774;-83
2022/03/07 01:48:06;;;;;;;;;;;;;;;-0.44;76.53;101533.53;5059787;28;1288;-82
2022/03/07 01:50:32;;;;;;;;;;;;;;;-0.40;76.44;101518.69;5060839;28;1345;-84
2022/03/07 01:52:57;;;;;;;;;;;;;;;-0.42;76.45;101526.09;5078949;28;884;-82
2022/03/07 01:55:22;;;;;;;;;;;;;;;-0.47;76.19;101522.31;5060631;28;1693;-83
2022/03/07 01:57:49;;;;;;;;;;;;;;;-0.55;76.49;101525.91;5079392;28;963;-83
2022/03/07 02:00:22;;;;;;;;;;;;;;;-0.52;76.42;101516.66;5060697;28;1443;-82
2022/03/07 02:02:47;;;;;;;;;;;;;;;-0.57;76.38;101514.50;5060717;28;1945;-83
2022/03/07 02:05:13;;;;;;;;;;;;;;;-0.56;76.40;101518.03;5058979;28;1493;-81
2022/03/07 02:07:38;;;;;;;;;;;;;;;-0.51;76.43;101513.75;5077240;28;1281;-82
2022/03/07 02:10:04;;;;;;;;;;;;;;;-0.47;76.59;101507.00;5059212;28;1292;-82
2022/03/07 02:12:29;;;;;;;;;;;;;;;-0.48;76.19;101501.81;5059621;28;1296;-82
2022/03/07 02:14:54;;;;;;;;;;;;;;;-0.48;76.04;101505.34;5041369;28;1360;-82
2022/03/07 02:17:20;;;;;;;;;;;;;;;-0.46;75.81;101503.31;5052696;28;1666;-83
2022/03/07 02:19:45;;;;;;;;;;;;;;;-0.56;75.57;101510.78;5061342;28;1603;-83
2022/03/07 02:22:10;;;;;;;;;;;;;;;-0.63;75.62;101509.03;5061763;28;1937;-83
2022/03/07 02:24:36;;;;;;;;;;;;;;;-0.64;75.77;101510.03;5080264;28;1395;-82
2022/03/07 02:27:03;;;;;;;;;;;;;;;-0.53;75.60;101501.53;5062093;28;1666;-83
2022/03/07 02:29:29;;;;;;;;;;;;;;;-0.63;76.00;101506.34;5079809;28;1366;-82
2022/03/07 02:31:54;;;;;;;;;;;;;;;-0.70;76.47;101500.84;5062085;28;1388;-82
2022/03/07 02:34:20;;;;;;;;;;;;;;;-0.65;76.56;101500.28;5080805;28;1619;-83
2022/03/07 02:36:45;;;;;;;;;;;;;;;-0.57;76.48;101509.13;5065158;28;1375;-83
2022/03/07 02:39:10;;;;;;;;;;;;;;;-0.52;76.56;101516.66;5072346;28;1694;-82
2022/03/07 02:41:40;;;;;;;;;;;;;;;-0.57;76.21;101517.19;5068532;28;1897;-82
2022/03/07 02:44:06;;;;;;;;;;;;;;;-0.57;76.34;101511.81;5077482;28;1590;-82
2022/03/07 02:46:32;;;;;;;;;;;;;;;-0.61;76.28;101512.38;5077906;28;805;-81
2022/03/07 02:48:57;;;;;;;;;;;;;;;-0.52;76.38;101512.13;5076977;28;1707;-82
2022/03/07 02:51:22;;;;;;;;;;;;;;;-0.61;76.17;101510.53;5077093;28;1526;-82
2022/03/07 02:53:49;;;;;;;;;;;;;;;-0.66;76.48;101512.91;5056992;28;1322;-82
2022/03/07 02:56:14;;;;;;;;;;;;;;;-0.67;76.91;101513.91;5058517;28;1116;-81
2022/03/07 02:58:39;;;;;;;;;;;;;;;-0.60;76.96;101511.34;5057998;28;1411;-81
2022/03/07 03:01:04;;;;;;;;;;;;;;;-0.72;76.93;101520.88;5058501;28;1022;-85
2022/03/07 03:03:29;;;;;;;;;;;;;;;-0.64;77.02;101510.88;5070471;28;1889;-81
2022/03/07 03:05:55;;;;;;;;;;;;;;;-0.65;77.11;101508.38;5085317;28;1450;-83
2022/03/07 03:08:22;;;;;;;;;;;;;;;-0.65;76.98;101508.38;5057818;28;1324;-84
2022/03/07 03:10:47;;;;;;;;;;;;;;;-0.67;76.95;101521.97;5075577;28;1721;-83
2022/03/07 03:13:12;;;;;;;;;;;;;;;-0.63;76.90;101515.25;5075382;28;1633;-83
2022/03/07 03:15:37;;;;;;;;;;;;;;;-0.70;77.28;101518.84;5075580;28;1590;-83
2022/03/07 03:18:02;;;;;;;;;;;;;;;-0.66;77.48;101510.22;5075697;28;1007;-83
2022/03/07 03:20:28;;;;;;;;;;;;;;;-0.64;77.34;101508.19;5057628;28;1322;-82
2022/03/07 03:22:53;;;;;;;;;;;;;;;-0.68;77.26;101517.63;5075219;28;1883;-84
2022/03/07 03:25:18;;;;;;;;;;;;;;;-0.64;77.23;101513.56;5074933;28;1740;-84
2022/03/07 03:27:43;;;;;;;;;;;;;;;-0.63;77.48;101514.41;5057376;28;1157;-84
2022/03/07 03:30:10;;;;;;;;;;;;;;;-0.68;76.90;101520.31;5075114;28;1661;-83
2022/03/07 03:32:35;;;;;;;;;;;;;;;-0.64;77.08;101518.94;5057157;28;1192;-82
2022/03/07 03:35:00;;;;;;;;;;;;;;;-0.58;76.96;101517.38;5056948;28;1721;-83
2022/03/07 03:37:25;;;;;;;;;;;;;;;-0.64;77.33;101512.72;5057438;28;1749;-84
2022/03/07 03:39:51;;;;;;;;;;;;;;;-0.60;77.25;101511.34;5044464;28;1298;-84
2022/03/07 03:42:16;;;;;;;;;;;;;;;-0.55;77.27;101519.69;5055622;28;1894;-83
2022/03/07 03:44:41;;;;;;;;;;;;;;;-0.59;77.12;101519.22;5039908;28;1821;-84
2022/03/07 03:47:07;;;;;;;;;;;;;;;-0.61;77.38;101510.53;5060898;28;1363;-84
2022/03/07 03:49:32;;;;;;;;;;;;;;;-0.64;77.51;101523.47;5062469;28;1406;-84
2022/03/07 03:51:57;;;;;;;;;;;;;;;-0.57;77.71;101521.72;5079617;28;789;-84
2022/03/07 03:54:22;;;;;;;;;;;;;;;-0.56;77.67;101524.25;5055633;28;1357;-84
2022/03/07 03:56:48;;;;;;;;;;;;;;;-0.53;77.55;101518.50;5047299;28;1289;-84
2022/03/07 03:59:13;;;;;;;;;;;;;;;-0.49;77.13;101517.09;5059249;28;1657;-83
2022/03/07 04:01:38;;;;;;;;;;;;;;;-0.61;77.18;101515.06;5058385;28;1948;-84
2022/03/07 04:04:03;;;;;;;;;;;;;;;-0.83;77.09;101498.78;5058896;28;1661;-84
2022/03/07 04:06:28;;;;;;;;;;;;;;;-0.62;77.05;101526.81;5058940;28;1156;-84
2022/03/07 04:08:54;;;;;;;;;;;;;;;-0.53;77.18;101523.03;5076779;28;1729;-84
2022/03/07 04:11:20;;;;;;;;;;;;;;;-0.50;77.11;101523.50;5058821;28;1670;-84
2022/03/07 04:13:46;;;;;;;;;;;;;;;-0.50;76.87;101523.50;5058902;28;1587;-84
2022/03/07 04:16:11;;;;;;;;;;;;;;;-0.52;76.78;101530.94;5077095;28;1543;-84
2022/03/07 04:18:37;;;;;;;;;;;;;;;-0.57;76.56;101519.03;5076357;28;1586;-83
2022/03/07 04:21:02;;;;;;;;;;;;;;;-0.68;76.97;101522.19;5076839;28;1687;-83
2022/03/07 04:23:27;;;;;;;;;;;;;;;-0.62;76.95;101524.97;5076136;28;1967;-83
2022/03/07 04:25:52;;;;;;;;;;;;;;;-0.63;77.10;101517.94;5076066;28;1312;-84
2022/03/07 04:28:17;;;;;;;;;;;;;;;-0.67;77.70;101519.28;5075625;28;869;-84
2022/03/07 04:30:42;;;;;;;;;;;;;;;-0.71;77.64;101520.69;5058100;28;1301;-83
2022/03/07 04:33:09;;;;;;;;;;;;;;;-0.65;77.73;101506.50;5071984;28;1391;-84
2022/03/07 04:35:34;;;;;;;;;;;;;;;-0.70;77.76;101506.22;5076842;28;1522;-83
2022/03/07 04:38:01;;;;;;;;;;;;;;;-0.65;77.85;101506.50;5058453;28;1170;-83
2022/03/07 04:40:26;;;;;;;;;;;;;;;-0.70;77.87;101505.41;5041861;28;1435;-83
2022/03/07 04:42:52;;;;;;;;;;;;;;;-0.66;77.80;101504.84;5076819;28;1906;-84
2022/03/07 04:45:18;;;;;;;;;;;;;;;-0.57;77.57;101510.97;5058368;28;1379;-83
2022/03/07 04:47:43;;;;;;;;;;;;;;;-0.65;77.23;101505.69;5076087;28;1696;-84
2022/03/07 04:50:09;;;;;;;;;;;;;;;-0.67;77.80;101500.47;5076976;28;1209;-84
2022/03/07 04:52:34;;;;;;;;;;;;;;;-0.69;77.89;101496.31;5076621;28;1396;-83
2022/03/07 04:54:59;;;;;;;;;;;;;;;-0.72;77.81;101492.13;5058194;28;1555;-83
2022/03/07 04:57:24;;;;;;;;;;;;;;;-0.74;78.23;101496.84;5051180;28;1290;-83
2022/03/07 04:59:49;;;;;;;;;;;;;;;-0.72;77.75;101505.56;5058195;28;1353;-83
2022/03/07 05:02:14;;;;;;;;;;;;;;;-0.67;77.66;101505.84;5058353;28;1890;-84
2022/03/07 05:04:40;;;;;;;;;;;;;;;-0.70;77.82;101503.53;5077809;28;1698;-84
2022/03/07 05:07:06;;;;;;;;;;;;;;;-0.74;77.96;101512.97;5076946;28;1622;-84
2022/03/07 05:09:31;;;;;;;;;;;;;;;-0.68;77.73;101506.06;5058913;28;1284;-82
2022/03/07 05:11:57;;;;;;;;;;;;;;;-0.79;77.75;101512.69;5058369;28;1877;-83
2022/03/07 05:14:22;;;;;;;;;;;;;;;-0.86;78.04;101515.28;5076378;28;1688;-84
2022/03/07 05:16:47;;;;;;;;;;;;;;;-0.81;77.96;101517.41;5058222;28;1773;-83
2022/03/07 05:19:12;;;;;;;;;;;;;;;-0.87;78.31;101523.53;5060996;28;1212;-84
2022/03/07 05:21:37;;;;;;;;;;;;;;;-0.89;78.20;101518.31;5079726;28;1889;-83
2022/03/07 05:24:03;;;;;;;;;;;;;;;-0.95;78.64;101534.34;5061560;28;1334;-83
2022/03/07 05:26:28;;;;;;;;;;;;;;;-0.96;78.95;101529.97;5079945;28;1264;-84
2022/03/07 05:28:53;;;;;;;;;;;;;;;-0.99;79.10;101533.84;5079634;28;1297;-83
2022/03/07 05:31:19;;;;;;;;;;;;;;;-1.00;78.95;101534.88;5079727;28;928;-84
2022/03/07 05:33:44;;;;;;;;;;;;;;;-0.93;79.07;101537.66;5062558;28;1322;-83
2022/03/07 05:36:09;;;;;;;;;;;;;;;-0.97;79.08;101536.38;5048591;28;1470;-85
2022/03/07 05:38:34;;;;;;;;;;;;;;;-0.99;79.21;101538.38;5062623;28;1690;-83
2022/03/07 05:41:00;;;;;;;;;;;;;;;-1.03;79.32;101537.09;5079499;28;1190;-86
2022/03/07 05:43:26;;;;;;;;;;;;;;;-1.04;79.47;101540.78;5076623;28;1902;-85
2022/03/07 05:45:51;;;;;;;;;;;;;;;-1.05;79.37;101541.81;5063414;28;842;-85
2022/03/07 05:48:16;;;;;;;;;;;;;;;-1.23;79.23;101547.47;5069474;28;1422;-84
2022/03/07 05:50:41;;;;;;;;;;;;;;;-1.31;79.70;101545.66;5078339;28;1410;-84
2022/03/07 05:53:07;;;;;;;;;;;;;;;-1.34;79.45;101551.38;5076079;28;1358;-85
2022/03/07 05:55:32;;;;;;;;;;;;;;;-1.46;79.82;101517.91;5047291;28;1337;-85
2022/03/07 05:58:00;;;;;;;;;;;;;;;-1.37;79.87;101549.06;5048398;28;1289;-85
2022/03/07 06:00:25;;;;;;;;;;;;;;;-1.40;79.96;101549.41;5067707;28;1426;-85
2022/03/07 06:02:50;;;;;;;;;;;;;;;-1.41;80.07;101547.72;5065040;28;1897;-85
2022/03/07 06:05:15;;;;;;;;;;;;;;;-1.41;80.28;101553.09;5057171;28;1317;-85
2022/03/07 06:07:40;;;;;;;;;;;;;;;-1.49;80.21;101555.84;5063991;28;1348;-85
2022/03/07 06:10:06;;;;;;;;;;;;;;;-1.58;80.50;101551.53;5089872;28;1328;-85
2022/03/07 06:12:31;;;;;;;;;;;;;;;-1.52;80.53;101548.97;5058216;28;1453;-85
2022/03/07 06:14:56;;;;;;;;;;;;;;;-1.53;80.29;101551.81;5041208;28;1308;-86
2022/03/07 06:17:22;;;;;;;;;;;;;;;-1.70;80.13;101550.25;5040572;28;1204;-85
2022/03/07 06:19:47;;;;;;;;;;;;;;;-1.67;80.33;101561.47;5058601;28;1305;-86
2022/03/07 06:22:12;;;;;;;;;;;;;;;-1.60;80.21;101559.75;5040341;28;1942;-86
2022/03/07 06:24:37;;;;;;;;;;;;;;;-1.58;80.05;101564.94;5039807;28;944;-85
2022/03/07 06:27:03;;;;;;;;;;;;;;;-1.58;80.34;101571.16;5039923;28;1188;-85
2022/03/07 06:29:28;;;;;;;;;;;;;;;-1.73;79.76;101578.28;5056955;28;1189;-86
2022/03/07 06:31:53;;;;;;;;;;;;;;;-1.91;79.73;101583.88;5058340;28;833;-85
2022/03/07 06:34:18;;;;;;;;;;;;;;;-1.96;79.84;101578.16;5039385;28;1386;-85
2022/03/07 06:36:44;;;;;;;;;;;;;;;-1.82;80.35;101578.47;5057759;28;992;-84
2022/03/07 06:39:09;;;;;;;;;;;;;;;-1.77;79.98;101581.47;5040241;28;1431;-86
2022/03/07 06:41:34;;;;;;;;;;;;;;;-1.79;79.71;101572.75;5039376;28;1963;-86
2022/03/07 06:44:02;;;;;;;;;;;;;;;-1.74;79.91;101575.75;5057197;28;876;-86
2022/03/07 06:46:28;;;;;;;;;;;;;;;-1.85;79.72;101579.66;5043066;28;1301;-86
2022/03/07 06:48:53;;;;;;;;;;;;;;;-1.98;79.67;101582.88;5038987;28;1343;-85
2022/03/07 06:51:20;;;;;;;;;;;;;;;-1.89;79.82;101586.38;5039252;28;1163;-85
2022/03/07 06:53:45;;;;;;;;;;;;;;;-1.85;79.69;101587.69;5038326;28;1349;-86
2022/03/07 06:56:11;;;;;;;;;;;;;;;-1.87;79.78;101580.84;5056816;28;1008;-85
2022/03/07 06:58:36;;;;;;;;;;;;;;;-1.91;79.80;101575.81;5040323;28;1277;-85
2022/03/07 07:01:01;;;;;;;;;;;;;;;-1.92;79.67;101592.91;5056732;28;794;-86
2022/03/07 07:03:26;;;;;;;;;;;;;;;-1.84;79.69;101577.78;5044470;28;1953;-87
2022/03/07 07:05:52;;;;;;;;;;;;;;;-1.81;79.55;101582.81;5058147;28;1338;-86
2022/03/07 07:08:17;;;;;;;;;;;;;;;-1.75;79.73;101587.50;5076340;28;963;-86
2022/03/07 07:10:42;;;;;;;;;;;;;;;-1.78;79.57;101585.16;5076700;28;1189;-86
2022/03/07 07:13:12;;;;;;;;;;;;;;;-1.75;79.77;101585.66;5058138;28;1030;-87
2022/03/07 07:15:37;;;;;;;;;;;;;;;-1.71;79.65;101586.16;5075096;28;1222;-86
2022/03/07 07:18:02;;;;;;;;;;;;;;;-1.56;79.85;101595.13;5075964;28;975;-86
2022/03/07 07:20:27;;;;;;;;;;;;;;;-1.50;79.80;101594.44;5055968;28;1244;-85
2022/03/07 07:22:52;;;;;;;;;;;;;;;-1.53;79.58;101597.47;5048840;28;1969;-84
2022/03/07 07:25:18;;;;;;;;;;;;;;;-1.46;79.62;101595.78;5054659;28;1000;-86
2022/03/07 07:27:43;;;;;;;;;;;;;;;-1.38;79.46;101587.69;5055279;28;841;-85
2022/03/07 07:30:09;;;;;;;;;;;;;;;-1.26;79.28;101596.16;5054553;28;1200;-85
2022/03/07 07:32:34;;;;;;;;;;;;;;;-1.30;79.39;101595.69;5036977;28;1364;-86
2022/03/07 07:35:00;;;;;;;;;;;;;;;-1.23;79.18;101593.97;5036441;28;1323;-85
2022/03/07 07:37:25;;;;;;;;;;;;;;;-1.15;78.88;101599.28;5054680;28;850;-84
2022/03/07 07:39:50;;;;;;;;;;;;;;;-1.11;78.95;101599.78;5036322;28;1208;-84
2022/03/07 07:42:15;;;;;;;;;;;;;;;-1.05;79.35;101606.28;5054523;28;1894;-84
2022/03/07 07:44:41;;;;;;;;;;;;;;;-0.97;79.26;101603.53;5054428;28;793;-84
2022/03/07 07:47:07;;;;;;;;;;;;;;;-0.83;79.13;101605.44;5036893;28;1197;-84
2022/03/07 07:49:32;;;;;;;;;;;;;;;-0.76;78.52;101604.56;5036181;28;1321;-84
2022/03/07 07:51:57;;;;;;;;;;;;;;;-0.70;78.27;101610.25;5036962;28;1133;-85
2022/03/07 07:54:23;;;;;;;;;;;;;;;-0.62;77.86;101608.31;5036218;28;989;-85
2022/03/07 07:56:48;;;;;;;;;;;;;;;-0.57;77.30;101611.31;5036572;28;1494;-85
2022/03/07 07:59:13;;;;;;;;;;;;;;;-0.56;77.20;101617.50;5035984;28;1287;-84
2022/03/07 08:01:39;;;;;;;;;;;;;;;-0.53;76.82;101622.53;5035952;28;1943;-84
2022/03/07 08:04:04;;;;;;;;;;;;;;;-0.51;76.27;101621.31;5053820;28;1043;-85
2022/03/07 08:06:29;;;;;;;;;;;;;;;-0.43;75.81;101621.28;5053870;28;896;-85
2022/03/07 08:08:54;;;;;;;;;;;;;;;-0.39;75.63;101622.59;5056197;28;1130;-87
2022/03/07 08:11:19;;;;;;;;;;;;;;;-0.40;75.16;101618.22;5043351;28;1215;-86
2022/03/07 08:13:44;;;;;;;;;;;;;;;-0.35;74.85;101622.22;5043218;28;1189;-86
2022/03/07 08:16:09;;;;;;;;;;;;;;;-0.28;74.55;101624.00;5042569;28;1044;-87
2022/03/07 08:18:35;;;;;;;;;;;;;;;-0.29;74.17;101624.19;5058343;28;1276;-86
2022/03/07 08:21:00;;;;;;;;;;;;;;;-0.27;74.21;101622.16;5057431;28;912;-85
2022/03/07 08:23:26;;;;;;;;;;;;;;;-0.25;74.16;101622.78;5038649;28;1894;-87
2022/03/07 08:25:51;;;;;;;;;;;;;;;-0.23;74.16;101621.59;5038733;28;1468;-86
2022/03/07 08:28:16;;;;;;;;;;;;;;;-0.20;73.93;101621.25;5038318;28;1287;-85
2022/03/07 08:30:41;;;;;;;;;;;;;;;-0.16;74.01;101614.47;5055601;28;1189;-85
2022/03/07 08:33:06;;;;;;;;;;;;;;;-0.11;73.85;101613.91;5038145;28;1434;-86
2022/03/07 08:35:31;;;;;;;;;;;;;;;-0.10;73.81;101610.22;5038114;28;1142;-86
2022/03/07 08:37:57;;;;;;;;;;;;;;;-0.08;73.87;101618.91;5037710;28;1400;-84
2022/03/07 08:40:22;;;;;;;;;;;;;;;-0.05;73.81;101605.94;5055792;28;1217;-84
2022/03/07 08:42:48;;;;;;;;;;;;;;;0.00;73.64;101616.97;5037216;28;1886;-87
2022/03/07 08:45:14;;;;;;;;;;;;;;;0.04;73.64;101622.00;5055159;28;988;-85
2022/03/07 08:47:40;;;;;;;;;;;;;;;0.06;73.35;101614.59;5038163;28;1197;-85
2022/03/07 08:50:06;;;;;;;;;;;;;;;0.11;73.14;101606.78;5055811;28;1309;-85
2022/03/07 08:52:31;;;;;;;;;;;;;;;0.15;72.91;101617.00;5037736;28;1361;-85
2022/03/07 08:54:56;;;;;;;;;;;;;;;0.17;72.70;101608.75;5058892;28;999;-85
2022/03/07 08:57:21;;;;;;;;;;;;;;;0.16;72.73;101612.47;5040952;28;830;-85
2022/03/07 08:59:46;;;;;;;;;;;;;;;0.24;72.60;101615.06;5063809;28;1434;-86
2022/03/07 09:02:12;;;;;;;;;;;;;;;0.36;72.26;101617.09;5060906;28;1902;-86
2022/03/07 09:04:40;;;;;;;;;;;;;;;0.42;71.88;101617.38;5077862;28;905;-84
2022/03/07 09:07:05;;;;;;;;;;;;;;;0.42;71.68;101620.91;5077594;28;837;-84
2022/03/07 09:09:31;;;;;;;;;;;;;;;0.44;71.76;101607.25;5078199;28;1264;-85
2022/03/07 09:11:56;;;;;;;;;;;;;;;0.47;71.50;101612.25;5078441;28;972;-86
2022/03/07 09:14:21;;;;;;;;;;;;;;;0.52;71.32;101612.53;5077869;28;624;-84
2022/03/07 09:16:47;;;;;;;;;;;;;;;0.58;71.17;101606.41;5060186;28;854;-87
2022/03/07 09:19:12;;;;;;;;;;;;;;;0.71;70.86;101610.09;5078736;28;1295;-87
2022/03/07 09:21:37;;;;;;;;;;;;;;;0.84;70.81;101606.72;5078735;28;1889;-85
2022/03/07 09:24:03;;;;;;;;;;;;;;;0.90;70.55;101607.81;5077666;28;944;-87
2022/03/07 09:26:28;;;;;;;;;;;;;;;0.94;70.27;101601.00;5078593;28;1120;-87
2022/03/07 09:28:53;;;;;;;;;;;;;;;0.99;70.09;101612.06;5078433;28;1208;-87
2022/03/07 09:31:18;;;;;;;;;;;;;;;1.06;70.03;101612.97;5079303;28;967;-87
2022/03/07 09:33:43;;;;;;;;;;;;;;;1.12;69.77;101607.66;5059739;28;1179;-85
2022/03/07 09:36:09;;;;;;;;;;;;;;;1.18;69.63;101611.47;5059080;28;1297;-87
2022/03/07 09:38:36;;;;;;;;;;;;;;;1.17;69.18;101600.84;5061037;28;1227;-85
2022/03/07 09:41:01;;;;;;;;;;;;;;;1.22;69.01;101604.63;5064753;28;1311;-87
2022/03/07 09:43:27;;;;;;;;;;;;;;;1.34;68.73;101599.56;5067767;28;1926;-86
2022/03/07 09:45:52;;;;;;;;;;;;;;;1.31;68.47;101608.88;5061929;28;1318;-84
2022/03/07 09:48:17;;;;;;;;;;;;;;;1.29;68.47;101607.38;5058662;28;1168;-85
2022/03/07 09:50:43;;;;;;;;;;;;;;;1.32;68.36;101607.03;5076651;28;1242;-85
2022/03/07 09:53:08;;;;;;;;;;;;;;;1.33;67.99;101597.91;5058751;28;1172;-86
2022/03/07 09:55:34;;;;;;;;;;;;;;;1.34;67.89;101602.28;5058795;28;1245;-85
2022/03/07 09:58:00;;;;;;;;;;;;;;;1.34;67.86;101602.28;5077197;28;920;-86
2022/03/07 10:00:25;;;;;;;;;;;;;;;1.38;67.60;101606.25;5058776;28;1210;-85
2022/03/07 10:02:54;;;;;;;;;;;;;;;1.44;67.51;101597.38;5076311;28;1897;-85
2022/03/07 10:05:19;;;;;;;;;;;;;;;1.52;67.34;101597.25;5075345;28;869;-84
2022/03/07 10:07:44;;;;;;;;;;;;;;;1.52;67.43;101599.94;5058500;28;1289;-86
2022/03/07 10:10:10;;;;;;;;;;;;;;;1.56;67.32;101594.97;5058551;28;1352;-84
2022/03/07 10:12:43;;;;;;;;;;;;;;;1.56;67.36;101595.81;5058407;28;1152;-84
2022/03/07 10:15:12;;;;;;;;;;;;;;;1.60;67.32;101585.50;5076436;28;1039;-83
2022/03/07 10:17:39;;;;;;;;;;;;;;;1.67;67.16;101580.97;5076125;28;1129;-83
2022/03/07 10:20:05;;;;;;;;;;;;;;;1.65;66.95;101580.31;5075940;28;1184;-84
2022/03/07 10:22:32;;;;;;;;;;;;;;;1.67;66.74;101583.66;5058369;28;1951;-86
2022/03/07 10:24:58;;;;;;;;;;;;;;;1.71;66.94;101591.16;5059171;28;1389;-84
2022/03/07 10:27:28;;;;;;;;;;;;;;;1.72;66.89;101587.44;5059622;28;1198;-84
2022/03/07 10:29:53;;;;;;;;;;;;;;;1.75;66.66;101587.06;5059192;28;1480;-84
2022/03/07 10:32:18;;;;;;;;;;;;;;;1.76;66.88;101582.50;5059905;28;1357;-84
2022/03/07 10:34:44;;;;;;;;;;;;;;;1.78;66.43;101573.19;5059289;28;1271;-84
2022/03/07 10:37:09;;;;;;;;;;;;;;;1.85;66.47;101573.22;5059252;28;1319;-84
2022/03/07 10:39:35;;;;;;;;;;;;;;;1.94;66.42;101573.91;5076699;28;1281;-84
2022/03/07 10:42:00;;;;;;;;;;;;;;;1.95;66.41;101564.78;5076878;28;1969;-84
2022/03/07 10:44:26;;;;;;;;;;;;;;;1.95;66.16;101564.78;5059069;28;1334;-85
2022/03/07 10:46:52;;;;;;;;;;;;;;;1.98;66.17;101564.38;5077071;28;896;-84
2022/03/07 10:49:17;;;;;;;;;;;;;;;2.08;65.64;101559.44;5058604;28;1329;-85
2022/03/07 10:51:52;;;;;;;;;;;;;;;2.03;65.58;101565.44;5057996;28;1212;-84
2022/03/07 10:54:18;;;;;;;;;;;;;;;2.08;65.74;101554.88;5076358;28;844;-84
2022/03/07 10:56:51;;;;;;;;;;;;;;;2.11;65.29;101549.09;5076964;28;1023;-85
2022/03/07 10:59:30;;;;;;;;;;;;;;;2.03;65.54;101553.81;5076857;28;1231;-85
2022/03/07 11:02:14;;;;;;;;;;;;;;;2.12;65.71;101547.22;5060223;28;1988;-85
2022/03/07 11:04:39;;;;;;;;;;;;;;;2.20;65.12;101545.19;5075866;28;834;-85
2022/03/07 11:07:06;;;;;;;;;;;;;;;2.33;64.60;101546.28;5076817;28;1074;-84
2022/03/07 11:09:31;;;;;;;;;;;;;;;2.24;64.50;101532.94;5058270;28;1340;-84
2022/03/07 11:11:57;;;;;;;;;;;;;;;2.19;64.36;101540.00;5058005;28;1215;-84
2022/03/07 11:14:24;;;;;;;;;;;;;;;2.24;64.23;101542.91;5058039;28;1199;-86
2022/03/07 11:16:51;;;;;;;;;;;;;;;2.27;64.51;101540.66;5059829;28;1228;-86
2022/03/07 11:19:17;;;;;;;;;;;;;;;2.35;63.95;101542.34;5058839;28;1253;-85
2022/03/07 11:21:43;;;;;;;;;;;;;;;2.42;64.07;101535.09;5077330;28;1902;-85
2022/03/07 11:24:08;;;;;;;;;;;;;;;2.52;64.39;101543.66;5059151;28;1350;-86
2022/03/07 11:26:33;;;;;;;;;;;;;;;2.70;63.77;101536.88;5059122;28;972;-86
2022/03/07 11:28:58;;;;;;;;;;;;;;;2.72;63.21;101535.63;5057886;28;1282;-85
2022/03/07 11:31:26;;;;;;;;;;;;;;;2.66;63.21;101536.41;5058558;28;1192;-85
2022/03/07 11:33:51;;;;;;;;;;;;;;;2.64;62.88;101538.50;5057689;28;1227;-85
2022/03/07 11:36:18;;;;;;;;;;;;;;;2.65;63.12;101532.06;5076153;28;801;-85
2022/03/07 11:38:53;;;;;;;;;;;;;;;2.89;62.84;101533.38;5057955;28;1227;-85
2022/03/07 11:41:23;;;;;;;;;;;;;;;3.06;61.85;101528.44;5057768;28;1408;-84
2022/03/07 11:43:49;;;;;;;;;;;;;;;2.96;62.31;101523.41;5075767;28;1966;-84
2022/03/07 11:46:22;;;;;;;;;;;;;;;2.83;62.24;101517.97;5076135;28;987;-85
2022/03/07 11:48:47;;;;;;;;;;;;;;;2.86;62.31;101509.44;5076143;28;1192;-83
2022/03/07 11:51:17;;;;;;;;;;;;;;;3.03;62.65;101511.56;5076521;28;1494;-84
2022/03/07 11:53:42;;;;;;;;;;;;;;;3.08;62.26;101502.81;5057012;28;1487;-85
2022/03/07 11:56:14;;;;;;;;;;;;;;;3.06;61.65;101504.91;5057509;28;1160;-84
2022/03/07 11:58:45;;;;;;;;;;;;;;;2.99;61.36;101502.19;5057396;28;1283;-83
2022/03/07 12:01:11;;;;;;;;;;;;;;;3.04;61.49;101485.34;5056897;28;1363;-83
2022/03/07 12:03:37;;;;;;;;;;;;;;;3.14;61.76;101488.47;5075366;28;1897;-84
2022/03/07 12:06:06;;;;;;;;;;;;;;;3.13;61.15;101485.97;5057170;28;1167;-85
2022/03/07 12:08:41;;;;;;;;;;;;;;;3.16;60.95;101480.97;5075339;28;1209;-85
2022/03/07 12:11:07;;;;;;;;;;;;;;;3.22;61.19;101482.03;5075137;28;991;-83
2022/03/07 12:13:33;;;;;;;;;;;;;;;3.38;61.36;101468.91;5057022;28;1491;-84
2022/03/07 12:15:59;;;;;;;;;;;;;;;3.74;59.94;101470.31;5075620;28;801;-84
2022/03/07 12:18:24;;;;;;;;;;;;;;;3.75;59.51;101471.94;5056206;28;1254;-84
2022/03/07 12:20:53;;;;;;;;;;;;;;;3.66;59.88;101456.97;5075106;28;1219;-84
2022/03/07 12:23:20;;;;;;;;;;;;;;;3.62;59.86;101451.16;5074957;28;1898;-84
2022/03/07 12:25:45;;;;;;;;;;;;;;;3.59;59.20;101457.00;5074691;28;956;-84
2022/03/07 12:28:11;;;;;;;;;;;;;;;3.68;59.62;101449.47;5074887;28;979;-84
2022/03/07 12:30:36;;;;;;;;;;;;;;;3.88;59.34;101454.84;5057022;28;1325;-85
2022/03/07 12:33:05;;;;;;;;;;;;;;;4.10;58.44;101454.34;5075386;28;1043;-83
2022/03/07 12:35:30;;;;;;;;;;;;;;;4.08;58.60;101445.59;5055934;28;1168;-83
2022/03/07 12:37:56;;;;;;;;;;;;;;;4.10;58.45;101445.38;5073763;28;1046;-83
2022/03/07 12:40:21;;;;;;;;;;;;;;;4.07;58.25;101441.25;5055992;28;1276;-83
2022/03/07 12:42:46;;;;;;;;;;;;;;;4.09;58.70;101441.00;5055794;28;1906;-83